createdAt,value
2017-05-25T00:00:16.565Z,65.84
2017-05-25T00:00:57.147Z,66.54
2017-05-25T00:01:37.731Z,66.41
2017-05-25T00:02:18.322Z,66.31
2017-05-25T00:02:59.851Z,66.6
2017-05-25T00:03:40.455Z,66.63
2017-05-25T00:04:21.037Z,66.31
2017-05-25T00:05:01.625Z,65.84
2017-05-25T00:05:42.213Z,66.31
2017-05-25T00:06:22.789Z,66.03
2017-05-25T00:07:03.366Z,66.5
2017-05-25T00:07:43.963Z,66.35
2017-05-25T00:08:24.565Z,66.6
2017-05-25T00:09:05.169Z,66.22
2017-05-25T00:09:45.763Z,66.41
2017-05-25T00:10:26.343Z,66.7
2017-05-25T00:11:06.942Z,66.5
2017-05-25T00:11:47.518Z,66.5
2017-05-25T00:12:28.091Z,66.5
2017-05-25T00:13:08.677Z,66.41
2017-05-25T00:13:49.257Z,66.5
2017-05-25T00:14:29.841Z,66.7
2017-05-25T00:15:10.419Z,66.6
2017-05-25T00:15:51.018Z,66.31
2017-05-25T00:16:31.610Z,66.6
2017-05-25T00:17:12.182Z,66.7
2017-05-25T00:17:52.749Z,66.7
2017-05-25T00:18:33.328Z,66.5
2017-05-25T00:19:13.898Z,66.5
2017-05-25T00:19:54.467Z,66.99
2017-05-25T00:20:35.074Z,66.89
2017-05-25T00:21:15.643Z,66.99
2017-05-25T00:21:56.219Z,67.08
2017-05-25T00:22:36.799Z,66.89
2017-05-25T00:23:17.378Z,67.18
2017-05-25T00:23:57.971Z,67.18
2017-05-25T00:24:38.554Z,67.18
2017-05-25T00:25:19.131Z,67.18
2017-05-25T00:25:59.757Z,67.27
2017-05-25T00:26:40.340Z,67.27
2017-05-25T00:27:20.913Z,67.55
2017-05-25T00:28:01.505Z,67.36
2017-05-25T00:28:42.089Z,67.36
2017-05-25T00:29:22.655Z,67.46
2017-05-25T00:30:03.227Z,67.65
2017-05-25T00:30:43.811Z,67.46
2017-05-25T00:31:24.433Z,67.27
2017-05-25T00:32:05.012Z,67.36
2017-05-25T00:32:45.615Z,67.36
2017-05-25T00:33:26.236Z,67.08
2017-05-25T00:34:06.815Z,67.36
2017-05-25T00:34:47.393Z,67.55
2017-05-25T00:35:27.965Z,67.55
2017-05-25T00:36:08.553Z,67.36
2017-05-25T00:36:49.128Z,67.94
2017-05-25T00:37:29.741Z,67.84
2017-05-25T00:38:10.303Z,68.04
2017-05-25T00:38:51.320Z,67.94
2017-05-25T00:39:31.919Z,67.75
2017-05-25T00:40:12.502Z,67.36
2017-05-25T00:40:53.096Z,67.55
2017-05-25T00:41:33.723Z,67.55
2017-05-25T00:42:14.292Z,67.27
2017-05-25T00:42:54.869Z,67.36
2017-05-25T00:43:35.443Z,67.27
2017-05-25T00:44:16.027Z,67.55
2017-05-25T00:44:56.609Z,67.55
2017-05-25T00:45:37.184Z,67.36
2017-05-25T00:46:17.756Z,67.36
2017-05-25T00:46:58.350Z,67.36
2017-05-25T00:47:38.932Z,67.36
2017-05-25T00:48:19.518Z,67.55
2017-05-25T00:49:00.096Z,67.46
2017-05-25T00:49:40.701Z,67.46
2017-05-25T00:50:21.277Z,67.65
2017-05-25T00:51:01.859Z,67.75
2017-05-25T00:51:42.455Z,67.46
2017-05-25T00:52:23.039Z,67.55
2017-05-25T00:53:03.619Z,67.46
2017-05-25T00:53:44.239Z,67.46
2017-05-25T00:54:24.826Z,67.65
2017-05-25T00:55:05.396Z,67.75
2017-05-25T00:55:45.976Z,67.75
2017-05-25T00:56:26.554Z,67.27
2017-05-25T00:57:07.148Z,67.36
2017-05-25T00:57:47.721Z,67.18
2017-05-25T00:58:28.300Z,67.18
2017-05-25T00:59:08.887Z,67.36
2017-05-25T00:59:49.473Z,67.18
2017-05-25T01:00:30.054Z,66.89
2017-05-25T01:01:10.640Z,66.79
2017-05-25T01:01:51.220Z,67.08
2017-05-25T01:02:31.816Z,66.89
2017-05-25T01:03:12.414Z,67.18
2017-05-25T01:03:52.983Z,66.89
2017-05-25T01:04:33.567Z,66.7
2017-05-25T01:05:14.146Z,66.99
2017-05-25T01:05:54.733Z,67.18
2017-05-25T01:06:35.319Z,66.89
2017-05-25T01:07:15.900Z,66.89
2017-05-25T01:07:56.474Z,67.08
2017-05-25T01:08:37.058Z,66.7
2017-05-25T01:09:17.646Z,67.18
2017-05-25T01:09:58.222Z,67.55
2017-05-25T01:10:38.811Z,67.27
2017-05-25T01:11:19.384Z,67.18
2017-05-25T01:11:59.967Z,67.36
2017-05-25T01:12:40.543Z,67.27
2017-05-25T01:13:21.134Z,67.36
2017-05-25T01:14:01.713Z,67.55
2017-05-25T01:14:42.291Z,67.55
2017-05-25T01:15:22.898Z,67.36
2017-05-25T01:16:03.482Z,67.43
2017-05-25T01:16:44.061Z,67.62
2017-05-25T01:17:24.629Z,67.71
2017-05-25T01:18:05.214Z,68.04
2017-05-25T01:18:45.816Z,67.81
2017-05-25T01:19:26.412Z,67.94
2017-05-25T01:20:07.000Z,67.84
2017-05-25T01:20:47.587Z,67.81
2017-05-25T01:21:28.160Z,68
2017-05-25T01:22:08.741Z,68
2017-05-25T01:22:49.372Z,68.1
2017-05-25T01:23:29.955Z,68.1
2017-05-25T01:24:10.528Z,68.19
2017-05-25T01:24:51.132Z,68.19
2017-05-25T01:25:31.733Z,68.23
2017-05-25T01:26:12.318Z,67.91
2017-05-25T01:26:52.900Z,68.1
2017-05-25T01:27:33.475Z,67.81
2017-05-25T01:28:14.096Z,67.91
2017-05-25T01:28:54.677Z,67.84
2017-05-25T01:29:35.251Z,67.81
2017-05-25T01:30:15.836Z,67.71
2017-05-25T01:30:56.434Z,67.91
2017-05-25T01:31:37.019Z,68.1
2017-05-25T01:32:17.601Z,68.76
2017-05-25T01:32:58.167Z,68.57
2017-05-25T01:33:38.744Z,68.29
2017-05-25T01:34:19.352Z,68.29
2017-05-25T01:34:59.927Z,68.57
2017-05-25T01:35:40.501Z,68.38
2017-05-25T01:36:21.110Z,68.1
2017-05-25T01:37:01.686Z,68.38
2017-05-25T01:37:42.261Z,68.29
2017-05-25T01:38:22.854Z,68.19
2017-05-25T01:39:03.424Z,68.38
2017-05-25T01:39:44.005Z,68.57
2017-05-25T01:40:24.590Z,68.38
2017-05-25T01:41:05.182Z,68.29
2017-05-25T01:41:45.765Z,68.29
2017-05-25T01:42:26.347Z,68.48
2017-05-25T01:43:06.927Z,68.29
2017-05-25T01:43:47.509Z,68.38
2017-05-25T01:44:28.082Z,68.38
2017-05-25T01:45:08.659Z,68.67
2017-05-25T01:45:49.257Z,68.67
2017-05-25T01:46:29.822Z,68.96
2017-05-25T01:47:10.412Z,68.38
2017-05-25T01:47:50.994Z,68.67
2017-05-25T01:48:31.593Z,68.57
2017-05-25T01:49:12.177Z,68.86
2017-05-25T01:49:52.764Z,68.67
2017-05-25T01:50:33.351Z,68.96
2017-05-25T01:51:13.925Z,68.86
2017-05-25T01:51:54.501Z,68.67
2017-05-25T01:52:35.104Z,68.76
2017-05-25T01:53:15.675Z,68.76
2017-05-25T01:53:56.263Z,69.15
2017-05-25T01:54:36.864Z,69.05
2017-05-25T01:55:17.454Z,69.05
2017-05-25T01:55:58.033Z,68.96
2017-05-25T01:56:38.612Z,69.05
2017-05-25T01:57:19.217Z,68.86
2017-05-25T01:57:59.790Z,69.05
2017-05-25T01:58:40.382Z,68.86
2017-05-25T01:59:20.962Z,69.05
2017-05-25T02:00:01.550Z,69.05
2017-05-25T02:00:42.132Z,68.86
2017-05-25T02:01:22.756Z,69.15
2017-05-25T02:02:03.594Z,69.05
2017-05-25T02:02:44.199Z,69.53
2017-05-25T02:03:24.789Z,69.72
2017-05-25T02:04:05.367Z,69.43
2017-05-25T02:04:45.949Z,69.62
2017-05-25T02:05:26.534Z,69.43
2017-05-25T02:06:07.113Z,69.34
2017-05-25T02:06:48.194Z,69.62
2017-05-25T02:07:28.772Z,69.72
2017-05-25T02:08:09.362Z,69.15
2017-05-25T02:08:49.944Z,69.72
2017-05-25T02:09:30.530Z,69.34
2017-05-25T02:10:11.104Z,69.43
2017-05-25T02:10:51.696Z,69.24
2017-05-25T02:11:32.310Z,69.24
2017-05-25T02:12:12.891Z,69.24
2017-05-25T02:12:53.482Z,69.72
2017-05-25T02:13:34.070Z,69.53
2017-05-25T02:14:14.704Z,69.82
2017-05-25T02:14:55.285Z,69.82
2017-05-25T02:15:35.884Z,69.62
2017-05-25T02:16:16.471Z,69.53
2017-05-25T02:16:57.060Z,69.24
2017-05-25T02:17:37.641Z,69.72
2017-05-25T02:18:18.219Z,69.62
2017-05-25T02:18:58.790Z,69.24
2017-05-25T02:19:39.381Z,69.72
2017-05-25T02:20:20.035Z,69.43
2017-05-25T02:21:00.639Z,69.62
2017-05-25T02:21:41.211Z,69.62
2017-05-25T02:22:21.793Z,69.62
2017-05-25T02:23:02.372Z,69.62
2017-05-25T02:23:42.953Z,69.82
2017-05-25T02:24:23.533Z,69.43
2017-05-25T02:25:04.112Z,69.62
2017-05-25T02:25:44.700Z,69.53
2017-05-25T02:26:25.280Z,69.43
2017-05-25T02:27:05.846Z,70.1
2017-05-25T02:27:46.436Z,69.91
2017-05-25T02:28:27.015Z,69.62
2017-05-25T02:29:07.581Z,69.91
2017-05-25T02:29:48.180Z,69.91
2017-05-25T02:30:28.753Z,69.82
2017-05-25T02:31:09.342Z,69.82
2017-05-25T02:31:49.914Z,69.72
2017-05-25T02:32:30.505Z,69.82
2017-05-25T02:33:11.123Z,69.62
2017-05-25T02:33:51.708Z,69.53
2017-05-25T02:34:32.295Z,69.82
2017-05-25T02:35:12.864Z,69.82
2017-05-25T02:35:53.446Z,70.39
2017-05-25T02:36:34.030Z,70.67
2017-05-25T02:37:14.632Z,70.29
2017-05-25T02:37:55.221Z,70.07
2017-05-25T02:38:35.804Z,70.48
2017-05-25T02:39:16.416Z,70.07
2017-05-25T02:39:56.987Z,70.48
2017-05-25T02:40:37.564Z,70.39
2017-05-25T02:41:18.387Z,70.39
2017-05-25T02:41:58.967Z,70.2
2017-05-25T02:42:39.601Z,70.1
2017-05-25T02:43:20.190Z,70.58
2017-05-25T02:44:00.795Z,70.26
2017-05-25T02:44:41.463Z,70.29
2017-05-25T02:45:22.051Z,70.48
2017-05-25T02:46:02.651Z,70.29
2017-05-25T02:46:43.240Z,70.2
2017-05-25T02:47:24.242Z,70.2
2017-05-25T02:48:04.835Z,70.29
2017-05-25T02:48:45.424Z,70.1
2017-05-25T02:49:26.010Z,70.26
2017-05-25T02:50:06.591Z,70.26
2017-05-25T02:50:47.158Z,70.29
2017-05-25T02:51:27.754Z,70.54
2017-05-25T02:52:08.330Z,70.29
2017-05-25T02:52:48.910Z,70.29
2017-05-25T02:53:29.477Z,70.26
2017-05-25T02:54:10.051Z,70.29
2017-05-25T02:54:50.641Z,70.45
2017-05-25T02:55:31.242Z,70.16
2017-05-25T02:56:11.820Z,70.83
2017-05-25T02:56:52.444Z,70.26
2017-05-25T02:57:33.029Z,70.26
2017-05-25T02:58:13.603Z,70.26
2017-05-25T02:58:54.179Z,70.83
2017-05-25T02:59:34.751Z,71.02
2017-05-25T03:00:15.345Z,70.83
2017-05-25T03:00:55.921Z,70.92
2017-05-25T03:01:36.526Z,70.26
2017-05-25T03:02:17.119Z,70.36
2017-05-25T03:02:57.689Z,70.36
2017-05-25T03:03:38.281Z,70.26
2017-05-25T03:04:18.850Z,70.36
2017-05-25T03:04:59.444Z,70.36
2017-05-25T03:05:40.027Z,70.83
2017-05-25T03:06:20.608Z,70.92
2017-05-25T03:07:01.183Z,71.02
2017-05-25T03:07:41.793Z,71.02
2017-05-25T03:08:22.369Z,70.83
2017-05-25T03:09:02.952Z,70.92
2017-05-25T03:09:43.610Z,70.64
2017-05-25T03:10:24.187Z,70.64
2017-05-25T03:11:04.770Z,70.64
2017-05-25T03:11:45.344Z,70.92
2017-05-25T03:12:25.935Z,70.73
2017-05-25T03:13:06.533Z,70.64
2017-05-25T03:13:47.119Z,70.64
2017-05-25T03:14:27.700Z,70.73
2017-05-25T03:15:08.284Z,70.83
2017-05-25T03:15:48.870Z,70.83
2017-05-25T03:16:29.479Z,71.12
2017-05-25T03:17:10.054Z,71.02
2017-05-25T03:17:50.645Z,71.31
2017-05-25T03:18:31.241Z,71.31
2017-05-25T03:19:11.832Z,71.5
2017-05-25T03:19:52.424Z,71.12
2017-05-25T03:20:33.008Z,71.5
2017-05-25T03:21:13.597Z,71.21
2017-05-25T03:21:54.221Z,71.31
2017-05-25T03:22:34.923Z,71.5
2017-05-25T03:23:15.593Z,71.41
2017-05-25T03:23:56.177Z,71.41
2017-05-25T03:24:36.770Z,71.31
2017-05-25T03:25:17.347Z,71.02
2017-05-25T03:25:57.918Z,71.12
2017-05-25T03:26:38.589Z,71.41
2017-05-25T03:27:19.122Z,71.31
2017-05-25T03:27:59.732Z,71.31
2017-05-25T03:28:40.368Z,71.41
2017-05-25T03:29:21.012Z,71.5
2017-05-25T03:30:01.575Z,71.41
2017-05-25T03:30:42.153Z,71.69
2017-05-25T03:31:22.735Z,71.78
2017-05-25T03:32:03.318Z,71.59
2017-05-25T03:32:43.901Z,71.5
2017-05-25T03:33:24.480Z,71.41
2017-05-25T03:34:05.404Z,71.59
2017-05-25T03:34:46.000Z,71.69
2017-05-25T03:35:26.602Z,71.69
2017-05-25T03:36:07.188Z,71.78
2017-05-25T03:36:47.898Z,71.59
2017-05-25T03:37:28.460Z,72.26
2017-05-25T03:38:09.027Z,71.88
2017-05-25T03:38:49.617Z,72.17
2017-05-25T03:39:30.203Z,72.07
2017-05-25T03:40:10.791Z,72.07
2017-05-25T03:40:51.416Z,71.88
2017-05-25T03:41:31.994Z,72.17
2017-05-25T03:42:12.583Z,72.07
2017-05-25T03:42:53.235Z,71.98
2017-05-25T03:43:33.814Z,72.17
2017-05-25T03:44:14.681Z,72.07
2017-05-25T03:44:55.274Z,72.17
2017-05-25T03:45:35.850Z,71.78
2017-05-25T03:46:16.441Z,72.07
2017-05-25T03:46:57.035Z,72.26
2017-05-25T03:47:37.610Z,71.78
2017-05-25T03:48:18.190Z,71.88
2017-05-25T03:48:58.824Z,72.26
2017-05-25T03:49:39.427Z,72.36
2017-05-25T03:50:20.008Z,72.36
2017-05-25T03:51:00.594Z,72.45
2017-05-25T03:51:41.175Z,72.36
2017-05-25T03:52:21.745Z,72.36
2017-05-25T03:53:02.327Z,72.07
2017-05-25T03:53:42.975Z,72.64
2017-05-25T03:54:23.548Z,72.26
2017-05-25T03:55:04.147Z,72.55
2017-05-25T03:55:44.734Z,71.98
2017-05-25T03:56:25.310Z,72.26
2017-05-25T03:57:05.894Z,72.26
2017-05-25T03:57:46.484Z,72.26
2017-05-25T03:58:27.104Z,71.98
2017-05-25T03:59:07.710Z,72.07
2017-05-25T03:59:48.299Z,72.17
2017-05-25T04:00:28.883Z,71.78
2017-05-25T04:01:09.470Z,71.69
2017-05-25T04:01:50.035Z,71.98
2017-05-25T04:02:30.606Z,71.59
2017-05-25T04:03:11.222Z,71.78
2017-05-25T04:03:51.822Z,72.36
2017-05-25T04:04:32.400Z,72.07
2017-05-25T04:05:13.041Z,71.88
2017-05-25T04:05:53.604Z,72.07
2017-05-25T04:06:34.183Z,72.07
2017-05-25T04:07:14.761Z,71.88
2017-05-25T04:07:55.354Z,71.88
2017-05-25T04:08:35.929Z,72.17
2017-05-25T04:09:16.516Z,71.98
2017-05-25T04:09:57.104Z,71.78
2017-05-25T04:10:37.672Z,71.78
2017-05-25T04:11:18.249Z,71.78
2017-05-25T04:11:58.834Z,71.69
2017-05-25T04:12:39.409Z,71.88
2017-05-25T04:13:20.005Z,71.69
2017-05-25T04:14:00.595Z,71.78
2017-05-25T04:14:41.184Z,71.92
2017-05-25T04:15:21.774Z,71.78
2017-05-25T04:16:02.371Z,71.59
2017-05-25T04:16:42.931Z,71.78
2017-05-25T04:17:23.520Z,71.63
2017-05-25T04:18:04.113Z,71.63
2017-05-25T04:18:45.190Z,71.44
2017-05-25T04:19:25.808Z,71.63
2017-05-25T04:20:06.405Z,71.34
2017-05-25T04:20:47.040Z,71.63
2017-05-25T04:21:27.553Z,71.82
2017-05-25T04:22:08.153Z,71.82
2017-05-25T04:22:48.741Z,71.63
2017-05-25T04:23:29.334Z,71.72
2017-05-25T04:24:09.906Z,71.34
2017-05-25T04:24:50.481Z,71.44
2017-05-25T04:25:31.069Z,71.63
2017-05-25T04:26:11.654Z,71.63
2017-05-25T04:26:52.236Z,71.72
2017-05-25T04:27:32.819Z,71.63
2017-05-25T04:28:13.404Z,71.63
2017-05-25T04:28:53.976Z,71.53
2017-05-25T04:29:34.571Z,71.44
2017-05-25T04:30:15.168Z,71.72
2017-05-25T04:30:55.771Z,71.82
2017-05-25T04:31:36.405Z,71.82
2017-05-25T04:32:17.069Z,71.63
2017-05-25T04:32:57.693Z,71.63
2017-05-25T04:33:38.258Z,71.63
2017-05-25T04:34:18.839Z,71.72
2017-05-25T04:34:59.415Z,71.72
2017-05-25T04:35:40.018Z,71.53
2017-05-25T04:36:20.598Z,71.72
2017-05-25T04:37:01.203Z,71.72
2017-05-25T04:37:41.795Z,71.63
2017-05-25T04:38:22.379Z,71.82
2017-05-25T04:39:02.986Z,71.82
2017-05-25T04:39:43.565Z,71.72
2017-05-25T04:40:24.156Z,71.44
2017-05-25T04:41:04.741Z,71.82
2017-05-25T04:41:45.319Z,71.78
2017-05-25T04:42:25.902Z,71.63
2017-05-25T04:43:06.496Z,71.82
2017-05-25T04:43:47.099Z,71.82
2017-05-25T04:44:27.674Z,71.92
2017-05-25T04:45:08.250Z,72.11
2017-05-25T04:45:48.827Z,72.01
2017-05-25T04:46:29.410Z,72.3
2017-05-25T04:47:09.988Z,72.45
2017-05-25T04:47:50.570Z,72.26
2017-05-25T04:48:31.168Z,72.11
2017-05-25T04:49:11.753Z,72.3
2017-05-25T04:49:52.327Z,72.11
2017-05-25T04:50:32.906Z,72.26
2017-05-25T04:51:13.484Z,72.3
2017-05-25T04:51:54.067Z,72.11
2017-05-25T04:52:34.651Z,72.39
2017-05-25T04:53:15.226Z,72.11
2017-05-25T04:53:55.817Z,72.2
2017-05-25T04:54:36.394Z,72.78
2017-05-25T04:55:16.977Z,72.68
2017-05-25T04:55:57.552Z,72.39
2017-05-25T04:56:38.132Z,72.49
2017-05-25T04:57:18.710Z,72.78
2017-05-25T04:57:59.298Z,72.58
2017-05-25T04:58:39.884Z,72.58
2017-05-25T04:59:20.475Z,72.58
2017-05-25T05:00:01.051Z,72.58
2017-05-25T05:00:41.626Z,72.39
2017-05-25T05:01:22.227Z,72.58
2017-05-25T05:02:02.810Z,72.58
2017-05-25T05:02:43.401Z,72.39
2017-05-25T05:03:23.982Z,73.16
2017-05-25T05:04:04.595Z,72.78
2017-05-25T05:04:45.168Z,73.16
2017-05-25T05:05:25.752Z,72.49
2017-05-25T05:06:06.359Z,72.39
2017-05-25T05:06:46.971Z,72.78
2017-05-25T05:07:27.570Z,72.11
2017-05-25T05:08:08.144Z,72.58
2017-05-25T05:08:48.711Z,72.58
2017-05-25T05:09:29.364Z,72.78
2017-05-25T05:10:09.959Z,72.3
2017-05-25T05:10:50.532Z,72.01
2017-05-25T05:11:31.113Z,72.39
2017-05-25T05:12:11.717Z,72.58
2017-05-25T05:12:52.312Z,72.58
2017-05-25T05:13:32.900Z,72.58
2017-05-25T05:14:13.486Z,72.49
2017-05-25T05:14:54.083Z,72.49
2017-05-25T05:15:34.666Z,72.58
2017-05-25T05:16:15.244Z,72.68
2017-05-25T05:16:55.830Z,72.87
2017-05-25T05:17:36.408Z,72.78
2017-05-25T05:18:17.018Z,72.58
2017-05-25T05:18:57.595Z,72.58
2017-05-25T05:19:38.190Z,72.49
2017-05-25T05:20:18.765Z,72.68
2017-05-25T05:20:59.352Z,72.49
2017-05-25T05:21:39.931Z,72.33
2017-05-25T05:22:20.535Z,72.72
2017-05-25T05:23:01.116Z,72.14
2017-05-25T05:23:41.697Z,72.43
2017-05-25T05:24:22.286Z,72.24
2017-05-25T05:25:02.862Z,72.33
2017-05-25T05:25:43.444Z,71.86
2017-05-25T05:26:24.026Z,71.67
2017-05-25T05:27:04.605Z,71.67
2017-05-25T05:27:45.196Z,71.67
2017-05-25T05:28:25.792Z,71.51
2017-05-25T05:29:06.376Z,71.22
2017-05-25T05:29:46.959Z,71.22
2017-05-25T05:30:27.528Z,71.13
2017-05-25T05:31:08.107Z,70.36
2017-05-25T05:31:48.695Z,70.46
2017-05-25T05:32:29.276Z,69.98
2017-05-25T05:33:09.890Z,69.73
2017-05-25T05:33:50.474Z,69.64
2017-05-25T05:34:31.063Z,69.06
2017-05-25T05:35:11.719Z,68.8
2017-05-25T05:35:52.296Z,68.29
2017-05-25T05:36:32.885Z,68.04
2017-05-25T05:37:13.476Z,67.66
2017-05-25T05:37:54.064Z,67.37
2017-05-25T05:38:34.674Z,67.27
2017-05-25T05:39:15.252Z,66.74
2017-05-25T05:39:55.840Z,66.06
2017-05-25T05:40:36.419Z,66.25
2017-05-25T05:41:17.011Z,65.3
2017-05-25T05:41:57.616Z,64.92
2017-05-25T05:42:38.208Z,64.95
2017-05-25T05:43:18.811Z,64.56
2017-05-25T05:43:59.387Z,63.42
2017-05-25T05:44:39.982Z,63.13
2017-05-25T05:45:20.569Z,62.65
2017-05-25T05:46:01.170Z,62.93
2017-05-25T05:46:41.771Z,63.06
2017-05-25T05:47:22.351Z,63.06
2017-05-25T05:48:02.936Z,62.59
2017-05-25T05:48:43.548Z,62.1
2017-05-25T05:49:24.144Z,62.01
2017-05-25T05:50:04.742Z,61.85
2017-05-25T05:50:45.447Z,61.18
2017-05-25T05:51:26.039Z,61.37
2017-05-25T05:52:06.691Z,61.37
2017-05-25T05:52:47.282Z,60.35
2017-05-25T05:53:27.879Z,60.53
2017-05-25T05:54:08.488Z,59.48
2017-05-25T05:54:49.083Z,59.38
2017-05-25T05:55:29.705Z,59.19
2017-05-25T05:56:10.302Z,59.29
2017-05-25T05:56:50.909Z,59.19
2017-05-25T05:57:31.497Z,58.55
2017-05-25T05:58:12.115Z,58.26
2017-05-25T05:58:52.738Z,58.26
2017-05-25T05:59:33.346Z,57.88
2017-05-25T06:00:13.932Z,58.07
2017-05-25T06:00:54.518Z,57.21
2017-05-25T06:01:35.107Z,56.73
2017-05-25T06:02:15.705Z,56.24
2017-05-25T06:02:56.295Z,56.15
2017-05-25T06:03:36.882Z,56.46
2017-05-25T06:04:17.460Z,56.46
2017-05-25T06:04:58.062Z,55.69
2017-05-25T06:05:38.637Z,55.12
2017-05-25T06:06:19.291Z,55.02
2017-05-25T06:06:59.823Z,54.64
2017-05-25T06:07:40.444Z,55.69
2017-05-25T06:08:21.049Z,55.32
2017-05-25T06:09:01.640Z,55.22
2017-05-25T06:09:42.385Z,54.74
2017-05-25T06:10:22.970Z,54.83
2017-05-25T06:11:03.574Z,54.57
2017-05-25T06:11:44.160Z,54.57
2017-05-25T06:12:24.748Z,53.23
2017-05-25T06:13:05.406Z,53.32
2017-05-25T06:13:46.005Z,53.52
2017-05-25T06:14:26.600Z,53.42
2017-05-25T06:15:07.190Z,52.94
2017-05-25T06:15:47.780Z,52.94
2017-05-25T06:16:28.370Z,53.23
2017-05-25T06:17:08.949Z,53.01
2017-05-25T06:17:49.561Z,53.2
2017-05-25T06:18:30.177Z,53.39
2017-05-25T06:19:10.767Z,53.39
2017-05-25T06:19:51.360Z,53.56
2017-05-25T06:20:31.958Z,54.52
2017-05-25T06:21:12.547Z,54.8
2017-05-25T06:21:53.144Z,54.8
2017-05-25T06:22:33.754Z,55.29
2017-05-25T06:23:14.343Z,55.77
2017-05-25T06:23:54.986Z,56.44
2017-05-25T06:24:35.577Z,55.96
2017-05-25T06:25:16.171Z,56.34
2017-05-25T06:25:56.772Z,57.04
2017-05-25T06:26:37.370Z,56.27
2017-05-25T06:27:17.952Z,55.6
2017-05-25T06:27:58.560Z,55.99
2017-05-25T06:28:39.161Z,56.21
2017-05-25T06:29:19.748Z,56.08
2017-05-25T06:30:00.398Z,55.53
2017-05-25T06:30:41.012Z,54.77
2017-05-25T06:31:21.602Z,55.05
2017-05-25T06:32:02.231Z,53.54
2017-05-25T06:32:42.800Z,53.25
2017-05-25T06:33:23.384Z,52.58
2017-05-25T06:34:03.972Z,53.06
2017-05-25T06:34:46.269Z,53.74
2017-05-25T06:35:32.142Z,54.89
2017-05-25T06:36:12.739Z,54.22
2017-05-25T06:36:53.642Z,53.54
2017-05-25T06:37:36.093Z,53.38
2017-05-25T06:38:17.282Z,53.28
2017-05-25T06:39:00.132Z,52.61
2017-05-25T06:39:41.918Z,52.29
2017-05-25T06:40:23.761Z,52.58
2017-05-25T06:41:04.451Z,51.43
2017-05-25T06:41:46.516Z,50.85
2017-05-25T06:42:27.580Z,52.39
2017-05-25T06:43:08.166Z,52.48
2017-05-25T06:43:48.818Z,53.03
2017-05-25T06:44:29.565Z,54
2017-05-25T06:45:10.186Z,54.69
2017-05-25T06:45:50.784Z,54.89
2017-05-25T06:46:31.401Z,53.54
2017-05-25T06:47:13.415Z,53.86
2017-05-25T06:47:55.146Z,53.76
2017-05-25T06:48:35.978Z,53.57
2017-05-25T06:49:16.632Z,53.28
2017-05-25T06:49:57.249Z,52.42
2017-05-25T06:50:37.852Z,52.54
2017-05-25T06:51:18.667Z,52.15
2017-05-25T06:51:59.258Z,52.15
2017-05-25T06:52:39.864Z,52.06
2017-05-25T06:53:20.461Z,50.99
2017-05-25T06:54:01.092Z,50.42
2017-05-25T06:54:41.699Z,51.19
2017-05-25T06:55:22.298Z,51.19
2017-05-25T06:56:02.890Z,50.45
2017-05-25T06:56:43.481Z,50.63
2017-05-25T06:57:24.074Z,50.35
2017-05-25T06:58:04.677Z,49.68
2017-05-25T06:58:45.286Z,49.38
2017-05-25T06:59:25.876Z,49.38
2017-05-25T07:00:06.525Z,49.19
2017-05-25T07:00:47.193Z,49.68
2017-05-25T07:01:27.830Z,50.66
2017-05-25T07:02:08.488Z,50.95
2017-05-25T07:02:49.076Z,49.51
2017-05-25T07:03:29.668Z,46.98
2017-05-25T07:04:10.270Z,46.69
2017-05-25T07:04:50.881Z,48.52
2017-05-25T07:05:31.492Z,50.06
2017-05-25T07:06:12.092Z,49.48
2017-05-25T07:06:52.709Z,48.81
2017-05-25T07:07:33.295Z,49.38
2017-05-25T07:08:13.896Z,49.7
2017-05-25T07:08:54.508Z,49.02
2017-05-25T07:09:35.113Z,48.16
2017-05-25T07:10:15.703Z,48.54
2017-05-25T07:10:56.407Z,48.54
2017-05-25T07:11:36.993Z,47.29
2017-05-25T07:12:17.574Z,46.91
2017-05-25T07:12:58.182Z,48.83
2017-05-25T07:13:38.798Z,49.41
2017-05-25T07:14:19.736Z,48.93
2017-05-25T07:15:00.458Z,47.58
2017-05-25T07:15:41.051Z,47.1
2017-05-25T07:16:21.670Z,47.8
2017-05-25T07:17:02.261Z,48.35
2017-05-25T07:17:42.873Z,47.8
2017-05-25T07:18:23.490Z,48.38
2017-05-25T07:19:04.079Z,47.31
2017-05-25T07:19:44.844Z,47.41
2017-05-25T07:20:25.492Z,48.38
2017-05-25T07:21:06.100Z,48.47
2017-05-25T07:21:46.771Z,47.89
2017-05-25T07:22:27.368Z,48.18
2017-05-25T07:23:07.974Z,48.28
2017-05-25T07:23:48.565Z,48.18
2017-05-25T07:24:29.281Z,48.47
2017-05-25T07:25:09.901Z,47.24
2017-05-25T07:25:51.431Z,47.24
2017-05-25T07:26:39.392Z,47.34
2017-05-25T07:27:47.079Z,47.14
2017-05-25T07:28:31.183Z,45.89
2017-05-25T07:29:12.036Z,44.73
2017-05-25T07:30:07.080Z,45.99
2017-05-25T07:30:50.886Z,44.45
2017-05-25T07:31:44.264Z,45.21
2017-05-25T07:32:25.366Z,45.51
2017-05-25T07:33:05.958Z,45.89
2017-05-25T07:33:46.579Z,46.2
2017-05-25T07:34:27.175Z,46.01
2017-05-25T07:35:07.777Z,46.2
2017-05-25T07:35:48.373Z,44.08
2017-05-25T07:36:28.965Z,44.18
2017-05-25T07:37:09.571Z,44.76
2017-05-25T07:37:50.164Z,44.27
2017-05-25T07:38:30.774Z,45.82
2017-05-25T07:39:11.399Z,44.66
2017-05-25T07:39:51.994Z,44.95
2017-05-25T07:40:32.594Z,45.43
2017-05-25T07:41:13.191Z,45.24
2017-05-25T07:41:53.791Z,42.44
2017-05-25T07:42:34.391Z,42.63
2017-05-25T07:43:15.000Z,43.98
2017-05-25T07:43:55.594Z,42.35
2017-05-25T07:44:36.205Z,43.89
2017-05-25T07:45:16.807Z,44.06
2017-05-25T07:45:57.401Z,44.83
2017-05-25T07:46:38.005Z,44.76
2017-05-25T07:47:18.614Z,42.52
2017-05-25T07:47:59.216Z,41.46
2017-05-25T07:48:39.806Z,42.13
2017-05-25T07:49:20.410Z,43.1
2017-05-25T07:50:01.005Z,42.69
2017-05-25T07:50:41.602Z,43.27
2017-05-25T07:51:22.197Z,43.65
2017-05-25T07:52:02.810Z,45.29
2017-05-25T07:52:43.437Z,43.75
2017-05-25T07:53:24.063Z,42.49
2017-05-25T07:54:04.717Z,42.4
2017-05-25T07:54:45.323Z,44.69
2017-05-25T07:55:25.910Z,45.75
2017-05-25T07:56:06.498Z,44.49
2017-05-25T07:56:47.095Z,46.04
2017-05-25T07:57:27.696Z,46.91
2017-05-25T07:58:08.294Z,47.29
2017-05-25T07:58:48.902Z,47.77
2017-05-25T07:59:29.491Z,47.49
2017-05-25T08:00:10.091Z,47.6
2017-05-25T08:00:50.673Z,46.15
2017-05-25T08:01:31.292Z,44.32
2017-05-25T08:02:11.896Z,43.65
2017-05-25T08:02:52.510Z,41.8
2017-05-25T08:03:33.109Z,42.67
2017-05-25T08:04:13.697Z,44.11
2017-05-25T08:04:54.308Z,45.25
2017-05-25T08:05:34.871Z,46.59
2017-05-25T08:06:15.483Z,47.75
2017-05-25T08:06:56.077Z,47.75
2017-05-25T08:07:36.676Z,46.98
2017-05-25T08:08:17.267Z,43.9
2017-05-25T08:08:57.882Z,43.71
2017-05-25T08:09:38.489Z,44.09
2017-05-25T08:10:19.082Z,45.63
2017-05-25T08:10:59.670Z,46.88
2017-05-25T08:11:40.270Z,47.85
2017-05-25T08:12:20.880Z,48.13
2017-05-25T08:13:01.470Z,48.43
2017-05-25T08:13:42.054Z,48.54
2017-05-25T08:14:22.648Z,47.29
2017-05-25T08:15:03.253Z,46.81
2017-05-25T08:15:43.877Z,47.19
2017-05-25T08:16:24.509Z,47.1
2017-05-25T08:17:05.123Z,44.89
2017-05-25T08:17:45.725Z,44.67
2017-05-25T08:18:26.321Z,45.25
2017-05-25T08:19:06.971Z,46.5
2017-05-25T08:19:47.572Z,47.24
2017-05-25T08:20:28.168Z,48.21
2017-05-25T08:21:08.784Z,48.21
2017-05-25T08:21:49.415Z,48.43
2017-05-25T08:22:30.021Z,48.43
2017-05-25T08:23:10.633Z,49.38
2017-05-25T08:23:51.227Z,49.58
2017-05-25T08:24:31.828Z,49.38
2017-05-25T08:25:12.415Z,47.19
2017-05-25T08:25:53.052Z,46.78
2017-05-25T08:26:33.649Z,47.08
2017-05-25T08:27:14.250Z,46.69
2017-05-25T08:27:54.843Z,46.31
2017-05-25T08:28:35.444Z,46.78
2017-05-25T08:29:16.043Z,47.65
2017-05-25T08:29:56.641Z,47.65
2017-05-25T08:30:37.260Z,47.85
2017-05-25T08:31:17.986Z,47.75
2017-05-25T08:31:58.585Z,47.44
2017-05-25T08:32:39.167Z,47.05
2017-05-25T08:33:19.770Z,46.77
2017-05-25T08:34:00.357Z,47.15
2017-05-25T08:34:40.942Z,46.77
2017-05-25T08:35:21.594Z,47.15
2017-05-25T08:36:02.205Z,46.67
2017-05-25T08:36:42.820Z,46.06
2017-05-25T08:37:23.412Z,46.45
2017-05-25T08:38:04.027Z,48.57
2017-05-25T08:38:44.640Z,49.53
2017-05-25T08:39:25.233Z,49.53
2017-05-25T08:40:05.828Z,50.2
2017-05-25T08:40:46.434Z,50.4
2017-05-25T08:41:27.010Z,50.59
2017-05-25T08:42:07.599Z,50.1
2017-05-25T08:42:48.204Z,49.63
2017-05-25T08:43:28.847Z,49.53
2017-05-25T08:44:09.448Z,49.36
2017-05-25T08:44:50.058Z,50.23
2017-05-25T08:45:30.626Z,50.04